Amma, West Virginia
Current Conditions -  °F | °C
As of 2:54 PM on Friday 19 Dec 2014 (Local Time) from KCRW Reporting Station
Overcast Overcast  
Wind Chill: 31°   Ceiling: 2200
Heat Index: 31°   Visibility: 9mi
Dew Point: 21°   Wind: 3mph
Humidity: 67%   Direction: 220°SW
Pressure: 30.25"   Gusts: NA
Location:  38.57°N, 81.27°W
Report Text: KCRW 191954Z 22003KT 9SM OVC022 M01/M06 A3025 RMK AO2 SLP251 T10061061
Loading
Personal Weather Stations






























Interactive Weather Map New forecast layout! Learn more

10-Day Weather Forecast

Advertisements
Track Severe Weather on mobile